Time;durP1;ratioP1;P1;durP2;ratioP2;P2;SDS_P1;SDS_P2;PMS_P1;PMS_P2;Temp;Humidity;BMP_temperature;BMP_pressure;BME280_temperature;BME280_humidity;BME280_pressure;Samples;Min_cycle;Max_cycle;Signal;HPM_P1;HPM_P2
2023/12/26 17:18:05;;;;;;;7.25;3.00;;;8.20;96.70;;;;;;7625804;19;20379;-71
2023/12/26 17:20:38;;;;;;;8.45;3.50;;;8.10;96.90;;;;;;7634892;19;20014;-71
2023/12/26 17:23:11;;;;;;;9.02;3.17;;;8.20;97.10;;;;;;7630561;19;21159;-71
2023/12/26 17:25:44;;;;;;;5.83;3.00;;;8.20;96.90;;;;;;7598660;19;20022;-72
2023/12/26 17:28:16;;;;;;;7.00;2.38;;;8.30;97.20;;;;;;7618910;19;20403;-71
2023/12/26 17:30:50;;;;;;;5.13;2.53;;;8.40;96.70;;;;;;7625550;19;20048;-72
2023/12/26 17:33:22;;;;;;;7.65;3.13;;;8.50;96.90;;;;;;7612273;19;20029;-72
2023/12/26 17:35:55;;;;;;;5.43;3.08;;;8.50;97.00;;;;;;7628732;19;20019;-72
2023/12/26 17:38:27;;;;;;;4.25;2.78;;;8.60;96.70;;;;;;7621358;19;20029;-71
2023/12/26 17:40:59;;;;;;;8.50;3.30;;;8.60;96.70;;;;;;7627773;19;20064;-72
2023/12/26 17:43:31;;;;;;;5.78;2.66;;;8.70;96.50;;;;;;6093198;19;10000382;-72
2023/12/26 17:46:04;;;;;;;7.18;3.30;;;8.80;96.70;;;;;;7619006;19;21060;-72
2023/12/26 17:48:36;;;;;;;4.13;2.80;;;8.70;96.70;;;;;;7627295;19;20397;-71
2023/12/26 17:51:09;;;;;;;8.83;3.67;;;8.80;96.80;;;;;;7614502;19;20014;-72
2023/12/26 17:53:41;;;;;;;6.60;2.58;;;8.80;96.80;;;;;;7552474;19;20018;-72
2023/12/26 17:56:19;;;;;;;4.05;2.55;;;8.80;96.60;;;;;;7569845;19;20022;-71
2023/12/26 17:58:51;;;;;;;3.90;2.30;;;8.80;96.70;;;;;;7604285;19;21204;-71
2023/12/26 18:01:26;;;;;;;10.70;4.57;;;8.80;96.80;;;;;;7591055;19;20056;-72
2023/12/26 18:03:58;;;;;;;6.15;3.05;;;8.80;97.00;;;;;;7594349;19;20021;-71
2023/12/26 18:06:31;;;;;;;6.32;3.35;;;8.80;97.00;;;;;;7582769;19;20007;-71
2023/12/26 18:09:04;;;;;;;14.55;2.78;;;8.80;97.70;;;;;;7597454;19;20061;-71
2023/12/26 18:11:36;;;;;;;4.05;2.08;;;8.80;97.30;;;;;;7580278;19;20014;-71
2023/12/26 18:14:10;;;;;;;6.03;2.67;;;8.80;97.40;;;;;;7601726;19;20014;-71
2023/12/26 18:16:43;;;;;;;5.10;2.90;;;8.80;97.90;;;;;;7609580;19;20010;-72
2023/12/26 18:19:15;;;;;;;9.70;3.08;;;8.80;97.90;;;;;;7607764;19;20142;-71
2023/12/26 18:21:50;;;;;;;4.27;2.93;;;8.80;98.00;;;;;;7612767;19;20046;-71
2023/12/26 18:24:23;;;;;;;8.65;3.17;;;8.80;98.10;;;;;;7613127;19;23357;-71
2023/12/26 18:26:56;;;;;;;9.10;3.60;;;8.70;98.20;;;;;;7606440;19;20014;-70
2023/12/26 18:29:28;;;;;;;13.23;6.75;;;8.70;98.40;;;;;;7573405;19;20018;-71
2023/12/26 18:32:01;;;;;;;11.15;5.75;;;8.70;98.40;;;;;;7557279;19;20022;-71
2023/12/26 18:34:33;;;;;;;8.63;4.97;;;8.70;99.20;;;;;;7566336;19;20584;-71
2023/12/26 18:37:06;;;;;;;8.18;3.83;;;8.70;98.80;;;;;;7565083;19;20014;-71
2023/12/26 18:39:57;;;;;;;9.32;3.72;;;8.60;98.50;;;;;;7577540;19;20014;-70
2023/12/26 18:42:29;;;;;;;11.57;3.60;;;8.70;98.60;;;;;;7575749;19;20029;-70
2023/12/26 18:45:01;;;;;;;5.93;2.85;;;8.60;99.10;;;;;;7576225;19;20379;-71
2023/12/26 18:47:34;;;;;;;5.60;3.47;;;8.50;98.90;;;;;;7569890;19;20027;-70
2023/12/26 18:50:08;;;;;;;11.25;4.53;;;8.60;99.30;;;;;;7577452;19;20039;-71
2023/12/26 18:52:41;;;;;;;8.95;3.90;;;8.60;99.50;;;;;;7573222;19;20536;-71
2023/12/26 18:55:14;;;;;;;11.63;3.97;;;8.60;99.60;;;;;;7568938;19;20052;-70
2023/12/26 18:57:46;;;;;;;12.98;4.28;;;8.60;99.90;;;;;;7568322;19;20018;-70
2023/12/26 19:00:18;;;;;;;8.93;3.60;;;8.60;99.90;;;;;;7561802;19;20112;-71
2023/12/26 19:02:51;;;;;;;7.97;3.53;;;8.70;99.90;;;;;;7560498;19;20018;-71
2023/12/26 19:05:24;;;;;;;4.95;2.92;;;8.60;99.90;;;;;;7543558;19;20121;-70
2023/12/26 19:07:56;;;;;;;5.20;2.58;;;8.60;99.90;;;;;;7564033;19;20055;-73
2023/12/26 19:10:28;;;;;;;7.45;2.88;;;8.50;99.90;;;;;;7563179;19;20141;-70
2023/12/26 19:13:01;;;;;;;6.18;3.22;;;8.50;99.90;;;;;;7541488;19;20871;-70
2023/12/26 19:15:40;;;;;;;6.64;3.30;;;8.50;99.90;;;;;;7322223;19;10001236;-72
2023/12/26 19:18:14;;;;;;;8.27;3.20;;;8.50;99.90;;;;;;7542602;19;20270;-73
2023/12/26 19:20:47;;;;;;;14.43;3.27;;;8.40;99.90;;;;;;7570842;19;20019;-71
2023/12/26 19:23:22;;;;;;;11.25;4.50;;;8.40;99.90;;;;;;7531139;19;20011;-70
2023/12/26 19:25:54;;;;;;;5.40;2.72;;;8.50;99.90;;;;;;7530788;19;20937;-71
2023/12/26 19:28:27;;;;;;;4.43;3.10;;;8.50;99.90;;;;;;7552197;19;20029;-70
2023/12/26 19:30:59;;;;;;;6.47;3.42;;;8.40;99.90;;;;;;7565634;19;20018;-71
2023/12/26 19:33:33;;;;;;;10.40;3.10;;;8.30;99.90;;;;;;7571520;19;20905;-71
2023/12/26 19:36:06;;;;;;;;;;;8.30;99.90;;;;;;7567378;19;20011;-70
2023/12/26 19:38:38;;;;;;;6.65;3.47;;;8.30;99.90;;;;;;7562902;19;20531;-71
2023/12/26 19:41:11;;;;;;;5.55;3.05;;;8.30;99.90;;;;;;7550892;19;20014;-70
2023/12/26 19:43:43;;;;;;;7.65;3.53;;;8.30;99.90;;;;;;7560480;19;20018;-70
2023/12/26 19:46:16;;;;;;;6.85;3.42;;;8.30;99.90;;;;;;7556285;19;20055;-71
2023/12/26 19:48:48;;;;;;;6.97;3.88;;;8.30;99.90;;;;;;7515414;19;20018;-70
2023/12/26 19:51:21;;;;;;;9.00;3.78;;;8.30;99.90;;;;;;7548004;19;20018;-70
2023/12/26 19:53:55;;;;;;;13.23;3.67;;;8.30;99.90;;;;;;7530971;19;20134;-70
2023/12/26 19:56:28;;;;;;;11.65;4.18;;;8.30;99.90;;;;;;7557979;19;21214;-72
2023/12/26 19:59:00;;;;;;;9.63;3.53;;;8.30;99.90;;;;;;7568131;19;20014;-70
2023/12/26 20:01:33;;;;;;;8.02;3.97;;;8.30;99.90;;;;;;7547725;19;20881;-70
2023/12/26 20:04:05;;;;;;;5.67;3.47;;;8.30;99.90;;;;;;7574650;19;20033;-71
2023/12/26 20:06:45;;;;;;;7.85;3.67;;;8.30;99.90;;;;;;7554146;19;20030;-73
2023/12/26 20:09:19;;;;;;;10.05;3.60;;;8.40;99.90;;;;;;7567432;19;20105;-72
2023/12/26 20:11:53;;;;;;;12.02;4.13;;;8.40;99.90;;;;;;7543035;19;20011;-73
2023/12/26 20:14:26;;;;;;;;;;;8.30;99.90;;;;;;7521511;19;21153;-71
2023/12/26 20:16:59;;;;;;;8.40;4.22;;;8.40;99.90;;;;;;7529949;19;19936;-71
2023/12/26 20:19:31;;;;;;;9.52;4.90;;;8.30;99.90;;;;;;7541940;19;21369;-71
2023/12/26 20:22:04;;;;;;;11.88;4.90;;;8.30;99.90;;;;;;7513372;19;20045;-71
2023/12/26 20:24:37;;;;;;;9.18;3.88;;;8.30;99.90;;;;;;7530506;19;20025;-71
2023/12/26 20:27:09;;;;;;;7.80;3.65;;;8.30;99.90;;;;;;7551239;19;20022;-71
2023/12/26 20:29:41;;;;;;;8.65;3.75;;;8.30;99.90;;;;;;7519541;19;20025;-71
2023/12/26 20:32:14;;;;;;;7.53;4.53;;;8.30;99.90;;;;;;7534597;19;20922;-71
2023/12/26 20:34:46;;;;;;;11.85;4.30;;;8.20;99.90;;;;;;7523496;19;20025;-71
2023/12/26 20:37:20;;;;;;;7.20;3.78;;;8.10;99.90;;;;;;7524793;19;20693;-71
2023/12/26 20:39:53;;;;;;;9.07;4.40;;;8.10;99.90;;;;;;7526927;19;20029;-71
2023/12/26 20:42:25;;;;;;;11.57;4.03;;;8.00;99.90;;;;;;7518333;19;20018;-70
2023/12/26 20:44:58;;;;;;;7.60;4.10;;;8.00;99.90;;;;;;7532666;19;20138;-71
2023/12/26 20:47:30;;;;;;;10.20;3.72;;;8.10;99.90;;;;;;7553412;19;20021;-70
2023/12/26 20:50:03;;;;;;;8.50;3.92;;;8.10;99.90;;;;;;7571425;19;20068;-72
2023/12/26 20:52:36;;;;;;;10.43;5.93;;;8.00;99.90;;;;;;7565246;19;20018;-70
2023/12/26 20:55:08;;;;;;;11.38;5.20;;;8.00;99.90;;;;;;7574473;19;20022;-71
2023/12/26 20:57:41;;;;;;;13.65;5.85;;;8.00;99.90;;;;;;7563759;19;20909;-70
2023/12/26 21:00:14;;;;;;;14.00;5.85;;;8.00;99.90;;;;;;7555599;19;20058;-70
2023/12/26 21:02:47;;;;;;;14.23;6.35;;;8.00;99.90;;;;;;7522989;19;20014;-70
2023/12/26 21:05:19;;;;;;;11.18;5.15;;;7.90;99.90;;;;;;7546955;19;20018;-73
